sensor_id;sensor_type;location;lat;lon;timestamp;temperature;humidity
13711;DHT22;6927;51.256;9.410;2022-12-31T01:50:33;11.50;99.90
13711;DHT22;6927;51.256;9.410;2022-12-31T01:53:36;11.50;99.90
13711;DHT22;6927;51.256;9.410;2022-12-31T01:56:11;11.50;99.90
13711;DHT22;6927;51.256;9.410;2022-12-31T01:58:46;11.50;99.90
13711;DHT22;6927;51.256;9.410;2022-12-31T02:01:30;11.50;99.90
13711;DHT22;6927;51.256;9.410;2022-12-31T02:07:07;11.50;99.90
13711;DHT22;6927;51.256;9.410;2022-12-31T02:09:45;11.50;99.90
13711;DHT22;6927;51.256;9.410;2022-12-31T02:12:38;11.50;99.90
13711;DHT22;6927;51.256;9.410;2022-12-31T02:15:07;11.50;99.90
13711;DHT22;6927;51.256;9.410;2022-12-31T02:30:22;11.70;99.90
13711;DHT22;6927;51.256;9.410;2022-12-31T02:33:17;11.70;99.90
13711;DHT22;6927;51.256;9.410;2022-12-31T02:36:05;11.70;99.90
13711;DHT22;6927;51.256;9.410;2022-12-31T02:39:02;11.70;99.90
13711;DHT22;6927;51.256;9.410;2022-12-31T02:41:35;11.70;99.90
13711;DHT22;6927;51.256;9.410;2022-12-31T02:44:53;11.70;99.90
13711;DHT22;6927;51.256;9.410;2022-12-31T02:53:18;11.80;99.90
13711;DHT22;6927;51.256;9.410;2022-12-31T02:56:14;11.80;99.90
13711;DHT22;6927;51.256;9.410;2022-12-31T03:02:39;11.90;99.90
13711;DHT22;6927;51.256;9.410;2022-12-31T03:05:14;11.90;99.90
13711;DHT22;6927;51.256;9.410;2022-12-31T03:07:46;11.90;99.90
13711;DHT22;6927;51.256;9.410;2022-12-31T03:10:28;11.90;99.90
13711;DHT22;6927;51.256;9.410;2022-12-31T03:13:00;12.00;99.90
13711;DHT22;6927;51.256;9.410;2022-12-31T03:15:50;12.00;99.90
13711;DHT22;6927;51.256;9.410;2022-12-31T03:18:21;12.00;99.90
13711;DHT22;6927;51.256;9.410;2022-12-31T03:21:13;12.00;99.90
13711;DHT22;6927;51.256;9.410;2022-12-31T03:24:16;12.00;99.90
13711;DHT22;6927;51.256;9.410;2022-12-31T03:30:45;12.10;99.90
13711;DHT22;6927;51.256;9.410;2022-12-31T03:33:45;12.10;99.90
13711;DHT22;6927;51.256;9.410;2022-12-31T03:36:21;12.20;99.90
13711;DHT22;6927;51.256;9.410;2022-12-31T03:39:07;12.20;99.90
13711;DHT22;6927;51.256;9.410;2022-12-31T03:41:54;12.30;99.90
13711;DHT22;6927;51.256;9.410;2022-12-31T03:44:29;12.30;99.90
13711;DHT22;6927;51.256;9.410;2022-12-31T03:47:15;12.30;99.90
13711;DHT22;6927;51.256;9.410;2022-12-31T03:49:46;12.40;99.90
13711;DHT22;6927;51.256;9.410;2022-12-31T03:52:15;12.40;99.90
13711;DHT22;6927;51.256;9.410;2022-12-31T03:54:56;12.40;99.90
13711;DHT22;6927;51.256;9.410;2022-12-31T03:57:22;12.50;99.90
13711;DHT22;6927;51.256;9.410;2022-12-31T04:00:15;12.50;99.90
13711;DHT22;6927;51.256;9.410;2022-12-31T04:02:51;12.50;99.90
13711;DHT22;6927;51.256;9.410;2022-12-31T04:08:12;12.60;99.90
13711;DHT22;6927;51.256;9.410;2022-12-31T04:10:56;12.60;99.90
13711;DHT22;6927;51.256;9.410;2022-12-31T04:13:22;12.60;99.90
13711;DHT22;6927;51.256;9.410;2022-12-31T04:15:50;12.60;99.90
13711;DHT22;6927;51.256;9.410;2022-12-31T04:18:26;12.70;99.90
13711;DHT22;6927;51.256;9.410;2022-12-31T04:21:04;12.70;99.90
13711;DHT22;6927;51.256;9.410;2022-12-31T04:23:49;12.70;99.90
13711;DHT22;6927;51.256;9.410;2022-12-31T04:26:23;12.70;99.90
13711;DHT22;6927;51.256;9.410;2022-12-31T04:35:00;12.90;99.90
13711;DHT22;6927;51.256;9.410;2022-12-31T04:37:37;13.00;99.90
13711;DHT22;6927;51.256;9.410;2022-12-31T04:40:03;13.00;99.90
13711;DHT22;6927;51.256;9.410;2022-12-31T04:42:58;13.10;99.90
13711;DHT22;6927;51.256;9.410;2022-12-31T04:45:36;13.10;99.90
13711;DHT22;6927;51.256;9.410;2022-12-31T04:48:03;13.20;99.90
13711;DHT22;6927;51.256;9.410;2022-12-31T04:50:45;13.20;99.90
13711;DHT22;6927;51.256;9.410;2022-12-31T04:53:24;13.20;99.90
13711;DHT22;6927;51.256;9.410;2022-12-31T04:55:56;13.20;99.90
13711;DHT22;6927;51.256;9.410;2022-12-31T04:58:42;13.20;99.90
13711;DHT22;6927;51.256;9.410;2022-12-31T05:01:19;13.20;99.90
13711;DHT22;6927;51.256;9.410;2022-12-31T05:04:33;13.10;99.90
13711;DHT22;6927;51.256;9.410;2022-12-31T05:07:10;13.10;99.90
13711;DHT22;6927;51.256;9.410;2022-12-31T05:16:42;12.90;99.90
13711;DHT22;6927;51.256;9.410;2022-12-31T05:28:34;12.70;99.90
13711;DHT22;6927;51.256;9.410;2022-12-31T05:31:15;12.60;99.90
13711;DHT22;6927;51.256;9.410;2022-12-31T05:34:15;12.60;99.90
13711;DHT22;6927;51.256;9.410;2022-12-31T05:36:44;12.70;99.90
13711;DHT22;6927;51.256;9.410;2022-12-31T05:39:31;12.60;99.90
13711;DHT22;6927;51.256;9.410;2022-12-31T05:42:54;12.70;99.90
13711;DHT22;6927;51.256;9.410;2022-12-31T05:45:58;12.70;99.90
13711;DHT22;6927;51.256;9.410;2022-12-31T05:48:50;12.70;99.90
13711;DHT22;6927;51.256;9.410;2022-12-31T05:51:48;12.80;99.90
13711;DHT22;6927;51.256;9.410;2022-12-31T05:54:50;12.80;99.90
13711;DHT22;6927;51.256;9.410;2022-12-31T05:57:43;12.80;99.90
13711;DHT22;6927;51.256;9.410;2022-12-31T06:00:21;12.80;99.90
13711;DHT22;6927;51.256;9.410;2022-12-31T06:02:57;12.80;99.90
13711;DHT22;6927;51.256;9.410;2022-12-31T06:05:37;12.80;99.90
13711;DHT22;6927;51.256;9.410;2022-12-31T06:08:05;12.80;99.90
13711;DHT22;6927;51.256;9.410;2022-12-31T06:10:31;12.90;99.90
13711;DHT22;6927;51.256;9.410;2022-12-31T06:13:00;13.00;99.90
13711;DHT22;6927;51.256;9.410;2022-12-31T06:15:38;13.00;99.90
13711;DHT22;6927;51.256;9.410;2022-12-31T06:18:04;13.00;99.90
13711;DHT22;6927;51.256;9.410;2022-12-31T06:20:42;13.10;99.90
13711;DHT22;6927;51.256;9.410;2022-12-31T06:23:08;13.10;99.90
13711;DHT22;6927;51.256;9.410;2022-12-31T06:25:49;13.10;99.90
13711;DHT22;6927;51.256;9.410;2022-12-31T06:28:15;13.10;99.90
13711;DHT22;6927;51.256;9.410;2022-12-31T06:31:04;13.10;99.90
13711;DHT22;6927;51.256;9.410;2022-12-31T06:33:50;13.10;99.90
13711;DHT22;6927;51.256;9.410;2022-12-31T06:36:31;13.10;99.90
13711;DHT22;6927;51.256;9.410;2022-12-31T06:39:06;13.10;99.90
13711;DHT22;6927;51.256;9.410;2022-12-31T06:41:32;13.10;99.90
13711;DHT22;6927;51.256;9.410;2022-12-31T06:44:00;13.20;99.90
13711;DHT22;6927;51.256;9.410;2022-12-31T06:46:29;13.20;99.90
13711;DHT22;6927;51.256;9.410;2022-12-31T06:48:55;13.20;99.90
13711;DHT22;6927;51.256;9.410;2022-12-31T06:51:20;13.10;99.90
13711;DHT22;6927;51.256;9.410;2022-12-31T06:53:48;13.20;99.90
13711;DHT22;6927;51.256;9.410;2022-12-31T06:56:32;13.20;99.90
13711;DHT22;6927;51.256;9.410;2022-12-31T06:59:22;13.30;99.90
13711;DHT22;6927;51.256;9.410;2022-12-31T07:05:31;13.40;99.90
13711;DHT22;6927;51.256;9.410;2022-12-31T07:11:45;13.50;99.90
13711;DHT22;6927;51.256;9.410;2022-12-31T07:14:45;13.50;99.90
13711;DHT22;6927;51.256;9.410;2022-12-31T07:20:16;13.60;99.90
13711;DHT22;6927;51.256;9.410;2022-12-31T07:22:49;13.60;99.90
13711;DHT22;6927;51.256;9.410;2022-12-31T07:25:18;13.60;99.90
13711;DHT22;6927;51.256;9.410;2022-12-31T07:30:35;13.70;99.90
13711;DHT22;6927;51.256;9.410;2022-12-31T07:33:28;13.70;99.90
13711;DHT22;6927;51.256;9.410;2022-12-31T07:38:39;13.80;99.90
13711;DHT22;6927;51.256;9.410;2022-12-31T07:41:53;13.70;99.90
13711;DHT22;6927;51.256;9.410;2022-12-31T07:47:54;13.80;99.90
13711;DHT22;6927;51.256;9.410;2022-12-31T07:50:22;13.80;99.90
13711;DHT22;6927;51.256;9.410;2022-12-31T07:52:57;13.80;99.90
13711;DHT22;6927;51.256;9.410;2022-12-31T07:55:32;13.70;99.90
13711;DHT22;6927;51.256;9.410;2022-12-31T07:58:05;13.70;99.90
13711;DHT22;6927;51.256;9.410;2022-12-31T08:00:42;13.60;99.90
13711;DHT22;6927;51.256;9.410;2022-12-31T08:03:40;13.60;99.90
13711;DHT22;6927;51.256;9.410;2022-12-31T08:12:19;13.50;99.90
13711;DHT22;6927;51.256;9.410;2022-12-31T08:14:49;13.60;99.90
13711;DHT22;6927;51.256;9.410;2022-12-31T08:17:34;13.60;99.90
13711;DHT22;6927;51.256;9.410;2022-12-31T08:20:00;13.60;99.90
13711;DHT22;6927;51.256;9.410;2022-12-31T08:25:30;13.60;99.90
13711;DHT22;6927;51.256;9.410;2022-12-31T08:34:31;13.60;99.90
13711;DHT22;6927;51.256;9.410;2022-12-31T08:37:15;13.60;99.90
13711;DHT22;6927;51.256;9.410;2022-12-31T08:40:00;13.70;99.90
13711;DHT22;6927;51.256;9.410;2022-12-31T08:45:27;13.80;99.90
13711;DHT22;6927;51.256;9.410;2022-12-31T09:31:15;14.80;99.90
13711;DHT22;6927;51.256;9.410;2022-12-31T09:34:07;14.80;99.90
13711;DHT22;6927;51.256;9.410;2022-12-31T09:36:53;14.80;99.90
13711;DHT22;6927;51.256;9.410;2022-12-31T09:39:36;14.80;99.90
13711;DHT22;6927;51.256;9.410;2022-12-31T10:40:03;14.70;99.90
13711;DHT22;6927;51.256;9.410;2022-12-31T10:45:55;14.70;99.90
13711;DHT22;6927;51.256;9.410;2022-12-31T11:00:28;14.80;99.90
13711;DHT22;6927;51.256;9.410;2022-12-31T11:03:22;15.00;99.90
13711;DHT22;6927;51.256;9.410;2022-12-31T11:09:04;15.10;99.90
13711;DHT22;6927;51.256;9.410;2022-12-31T11:23:23;15.50;99.90
13711;DHT22;6927;51.256;9.410;2022-12-31T11:29:41;15.60;99.90
13711;DHT22;6927;51.256;9.410;2022-12-31T11:58:45;16.80;99.90
13711;DHT22;6927;51.256;9.410;2022-12-31T12:01:32;16.80;99.90
13711;DHT22;6927;51.256;9.410;2022-12-31T12:04:12;16.80;99.90
13711;DHT22;6927;51.256;9.410;2022-12-31T12:07:07;16.90;99.90
13711;DHT22;6927;51.256;9.410;2022-12-31T12:22:07;16.60;99.90
13711;DHT22;6927;51.256;9.410;2022-12-31T12:24:50;16.60;99.90
13711;DHT22;6927;51.256;9.410;2022-12-31T12:41:43;16.50;99.90
13711;DHT22;6927;51.256;9.410;2022-12-31T12:44:17;16.60;99.90
13711;DHT22;6927;51.256;9.410;2022-12-31T12:46:46;16.70;99.90
13711;DHT22;6927;51.256;9.410;2022-12-31T12:49:30;16.70;99.90
13711;DHT22;6927;51.256;9.410;2022-12-31T13:04:04;17.00;99.90
13711;DHT22;6927;51.256;9.410;2022-12-31T13:14:58;17.30;99.90
13711;DHT22;6927;51.256;9.410;2022-12-31T13:23:36;17.30;99.90
13711;DHT22;6927;51.256;9.410;2022-12-31T13:26:39;17.40;99.90
13711;DHT22;6927;51.256;9.410;2022-12-31T13:29:15;17.50;99.90
13711;DHT22;6927;51.256;9.410;2022-12-31T13:31:46;17.60;99.90
13711;DHT22;6927;51.256;9.410;2022-12-31T13:34:24;17.50;99.90
13711;DHT22;6927;51.256;9.410;2022-12-31T13:37:01;17.50;99.90
13711;DHT22;6927;51.256;9.410;2022-12-31T13:39:35;17.30;99.90
13711;DHT22;6927;51.256;9.410;2022-12-31T13:42:36;17.10;99.90
13711;DHT22;6927;51.256;9.410;2022-12-31T13:45:18;16.80;99.90
13711;DHT22;6927;51.256;9.410;2022-12-31T13:48:12;16.50;99.90
13711;DHT22;6927;51.256;9.410;2022-12-31T13:50:50;16.40;99.90
13711;DHT22;6927;51.256;9.410;2022-12-31T13:54:06;16.30;99.90
13711;DHT22;6927;51.256;9.410;2022-12-31T13:56:39;16.20;99.90
13711;DHT22;6927;51.256;9.410;2022-12-31T14:05:38;16.00;99.90
13711;DHT22;6927;51.256;9.410;2022-12-31T14:08:16;15.90;99.90
13711;DHT22;6927;51.256;9.410;2022-12-31T14:22:18;15.70;99.90
13711;DHT22;6927;51.256;9.410;2022-12-31T14:24:52;15.60;99.90
13711;DHT22;6927;51.256;9.410;2022-12-31T14:27:29;15.60;99.90
13711;DHT22;6927;51.256;9.410;2022-12-31T14:30:08;15.60;99.90
13711;DHT22;6927;51.256;9.410;2022-12-31T14:47:00;15.20;99.90
13711;DHT22;6927;51.256;9.410;2022-12-31T14:53:07;15.10;99.90
13711;DHT22;6927;51.256;9.410;2022-12-31T14:55:38;15.10;99.90
13711;DHT22;6927;51.256;9.410;2022-12-31T14:58:38;15.00;99.90
13711;DHT22;6927;51.256;9.410;2022-12-31T15:01:42;15.00;99.90
13711;DHT22;6927;51.256;9.410;2022-12-31T15:04:32;15.00;99.90
13711;DHT22;6927;51.256;9.410;2022-12-31T15:07:18;15.00;99.90
13711;DHT22;6927;51.256;9.410;2022-12-31T15:10:20;14.90;99.90
13711;DHT22;6927;51.256;9.410;2022-12-31T15:24:41;14.80;99.90
13711;DHT22;6927;51.256;9.410;2022-12-31T16:18:40;14.40;99.90
13711;DHT22;6927;51.256;9.410;2022-12-31T16:23:52;14.40;99.90
13711;DHT22;6927;51.256;9.410;2022-12-31T16:26:18;14.40;99.90
13711;DHT22;6927;51.256;9.410;2022-12-31T16:28:48;14.40;99.90
13711;DHT22;6927;51.256;9.410;2022-12-31T16:31:16;14.30;99.90
13711;DHT22;6927;51.256;9.410;2022-12-31T16:33:43;14.30;99.90
13711;DHT22;6927;51.256;9.410;2022-12-31T16:36:21;14.20;99.90
13711;DHT22;6927;51.256;9.410;2022-12-31T16:38:47;14.20;99.90
13711;DHT22;6927;51.256;9.410;2022-12-31T16:41:21;14.20;99.90
13711;DHT22;6927;51.256;9.410;2022-12-31T16:43:49;14.20;99.90
13711;DHT22;6927;51.256;9.410;2022-12-31T16:46:23;14.20;99.90
13711;DHT22;6927;51.256;9.410;2022-12-31T16:48:55;14.20;99.90
13711;DHT22;6927;51.256;9.410;2022-12-31T16:51:32;14.20;99.90
13711;DHT22;6927;51.256;9.410;2022-12-31T16:54:00;14.20;99.90
13711;DHT22;6927;51.256;9.410;2022-12-31T16:56:53;14.20;99.90
13711;DHT22;6927;51.256;9.410;2022-12-31T17:02:03;14.20;99.90
13711;DHT22;6927;51.256;9.410;2022-12-31T17:04:31;14.10;99.90
13711;DHT22;6927;51.256;9.410;2022-12-31T17:12:33;14.20;99.90
13711;DHT22;6927;51.256;9.410;2022-12-31T17:15:06;14.20;99.90
13711;DHT22;6927;51.256;9.410;2022-12-31T17:17:35;14.20;99.90
13711;DHT22;6927;51.256;9.410;2022-12-31T17:20:05;14.20;99.90
13711;DHT22;6927;51.256;9.410;2022-12-31T17:22:38;14.30;99.90
13711;DHT22;6927;51.256;9.410;2022-12-31T17:25:23;14.30;99.90
13711;DHT22;6927;51.256;9.410;2022-12-31T17:28:18;14.30;99.90
13711;DHT22;6927;51.256;9.410;2022-12-31T17:30:45;14.30;99.90
13711;DHT22;6927;51.256;9.410;2022-12-31T17:35:38;14.30;99.90
13711;DHT22;6927;51.256;9.410;2022-12-31T17:40:53;14.30;99.90
13711;DHT22;6927;51.256;9.410;2022-12-31T17:43:20;14.20;99.90
13711;DHT22;6927;51.256;9.410;2022-12-31T17:45:49;14.20;99.90
13711;DHT22;6927;51.256;9.410;2022-12-31T17:48:16;14.10;99.90
13711;DHT22;6927;51.256;9.410;2022-12-31T17:50:48;14.10;99.90
13711;DHT22;6927;51.256;9.410;2022-12-31T17:53:13;14.20;99.90
13711;DHT22;6927;51.256;9.410;2022-12-31T17:55:40;14.20;99.90
13711;DHT22;6927;51.256;9.410;2022-12-31T17:58:07;14.20;99.90
13711;DHT22;6927;51.256;9.410;2022-12-31T18:00:37;14.10;99.90
13711;DHT22;6927;51.256;9.410;2022-12-31T18:03:03;14.10;99.90
13711;DHT22;6927;51.256;9.410;2022-12-31T18:05:28;14.20;99.90
13711;DHT22;6927;51.256;9.410;2022-12-31T18:07:54;14.20;99.90
13711;DHT22;6927;51.256;9.410;2022-12-31T18:10:21;14.20;99.90
13711;DHT22;6927;51.256;9.410;2022-12-31T18:12:48;14.20;99.90
13711;DHT22;6927;51.256;9.410;2022-12-31T18:15:20;14.20;99.90
13711;DHT22;6927;51.256;9.410;2022-12-31T18:17:46;14.20;99.90
13711;DHT22;6927;51.256;9.410;2022-12-31T18:20:12;14.20;99.90
13711;DHT22;6927;51.256;9.410;2022-12-31T18:22:39;14.20;99.90
13711;DHT22;6927;51.256;9.410;2022-12-31T18:25:06;14.20;99.90
13711;DHT22;6927;51.256;9.410;2022-12-31T18:27:32;14.20;99.90
13711;DHT22;6927;51.256;9.410;2022-12-31T18:29:59;14.10;99.90
13711;DHT22;6927;51.256;9.410;2022-12-31T18:32:28;14.10;99.90
13711;DHT22;6927;51.256;9.410;2022-12-31T18:34:54;14.10;99.90
13711;DHT22;6927;51.256;9.410;2022-12-31T18:37:30;14.10;99.90
13711;DHT22;6927;51.256;9.410;2022-12-31T18:39:56;14.10;99.90
13711;DHT22;6927;51.256;9.410;2022-12-31T18:42:44;14.10;99.90
13711;DHT22;6927;51.256;9.410;2022-12-31T18:45:27;14.10;99.90
13711;DHT22;6927;51.256;9.410;2022-12-31T18:47:53;14.00;99.90
13711;DHT22;6927;51.256;9.410;2022-12-31T18:50:22;14.00;99.90
13711;DHT22;6927;51.256;9.410;2022-12-31T18:52:47;14.00;99.90
13711;DHT22;6927;51.256;9.410;2022-12-31T18:58:00;14.00;99.90
13711;DHT22;6927;51.256;9.410;2022-12-31T19:00:34;14.00;99.90
13711;DHT22;6927;51.256;9.410;2022-12-31T19:10:44;14.00;99.90
13711;DHT22;6927;51.256;9.410;2022-12-31T19:13:14;14.00;99.90
13711;DHT22;6927;51.256;9.410;2022-12-31T19:15:50;14.00;99.90
13711;DHT22;6927;51.256;9.410;2022-12-31T19:18:48;13.90;99.90
13711;DHT22;6927;51.256;9.410;2022-12-31T19:35:37;13.90;99.90
13711;DHT22;6927;51.256;9.410;2022-12-31T19:38:52;13.90;99.90
13711;DHT22;6927;51.256;9.410;2022-12-31T19:42:19;14.00;99.90
13711;DHT22;6927;51.256;9.410;2022-12-31T19:49:01;13.90;99.90
13711;DHT22;6927;51.256;9.410;2022-12-31T19:52:10;13.90;99.90
13711;DHT22;6927;51.256;9.410;2022-12-31T19:54:40;13.90;99.90
13711;DHT22;6927;51.256;9.410;2022-12-31T20:00:52;13.90;99.90
13711;DHT22;6927;51.256;9.410;2022-12-31T20:13:36;13.80;99.90
13711;DHT22;6927;51.256;9.410;2022-12-31T20:19:54;13.90;99.90
13711;DHT22;6927;51.256;9.410;2022-12-31T20:23:09;13.90;99.90
13711;DHT22;6927;51.256;9.410;2022-12-31T20:25:56;13.90;99.90
13711;DHT22;6927;51.256;9.410;2022-12-31T20:28:42;13.90;99.90
13711;DHT22;6927;51.256;9.410;2022-12-31T20:38:48;13.90;99.90
13711;DHT22;6927;51.256;9.410;2022-12-31T20:41:29;14.00;99.90
13711;DHT22;6927;51.256;9.410;2022-12-31T20:44:24;14.00;99.90
13711;DHT22;6927;51.256;9.410;2022-12-31T20:54:08;13.90;99.90
13711;DHT22;6927;51.256;9.410;2022-12-31T20:57:26;13.80;99.90
13711;DHT22;6927;51.256;9.410;2022-12-31T21:00:14;13.80;99.90
13711;DHT22;6927;51.256;9.410;2022-12-31T21:06:34;13.80;99.90
13711;DHT22;6927;51.256;9.410;2022-12-31T21:09:54;13.80;99.90
13711;DHT22;6927;51.256;9.410;2022-12-31T21:16:55;13.80;99.90
13711;DHT22;6927;51.256;9.410;2022-12-31T21:20:10;13.70;99.90
13711;DHT22;6927;51.256;9.410;2022-12-31T21:23:19;13.60;99.90
13711;DHT22;6927;51.256;9.410;2022-12-31T21:26:20;13.60;99.90
13711;DHT22;6927;51.256;9.410;2022-12-31T21:29:26;13.60;99.90
13711;DHT22;6927;51.256;9.410;2022-12-31T21:32:13;13.70;99.90
13711;DHT22;6927;51.256;9.410;2022-12-31T21:42:04;13.80;99.90
13711;DHT22;6927;51.256;9.410;2022-12-31T21:48:14;13.70;99.90
13711;DHT22;6927;51.256;9.410;2022-12-31T21:51:49;13.70;99.90
13711;DHT22;6927;51.256;9.410;2022-12-31T21:55:24;13.70;99.90
13711;DHT22;6927;51.256;9.410;2022-12-31T22:01:42;13.70;99.90
13711;DHT22;6927;51.256;9.410;2022-12-31T22:04:51;13.70;99.90
13711;DHT22;6927;51.256;9.410;2022-12-31T22:18:53;13.60;99.90
13711;DHT22;6927;51.256;9.410;2022-12-31T22:25:12;13.60;99.90
13711;DHT22;6927;51.256;9.410;2022-12-31T22:57:41;13.10;99.90
13711;DHT22;6927;51.256;9.410;2022-12-31T23:00:40;13.10;99.90
13711;DHT22;6927;51.256;9.410;2022-12-31T23:03:52;13.20;99.90
13711;DHT22;6927;51.256;9.410;2022-12-31T23:06:46;13.10;99.90
13711;DHT22;6927;51.256;9.410;2022-12-31T23:12:47;12.90;99.90
13711;DHT22;6927;51.256;9.410;2022-12-31T23:15:43;12.80;99.90
13711;DHT22;6927;51.256;9.410;2022-12-31T23:22:08;12.70;99.90
13711;DHT22;6927;51.256;9.410;2022-12-31T23:25:29;12.60;99.90
13711;DHT22;6927;51.256;9.410;2022-12-31T23:27:59;12.60;99.90
13711;DHT22;6927;51.256;9.410;2022-12-31T23:31:12;12.60;99.90
13711;DHT22;6927;51.256;9.410;2022-12-31T23:38:08;12.70;99.90
13711;DHT22;6927;51.256;9.410;2022-12-31T23:44:03;12.80;99.90
13711;DHT22;6927;51.256;9.410;2022-12-31T23:50:48;12.80;99.90
13711;DHT22;6927;51.256;9.410;2022-12-31T23:54:28;12.80;99.90
13711;DHT22;6927;51.256;9.410;2022-12-31T23:57:11;12.80;99.90
